Korrewegwijk, Netherlands
Current Conditions -  °F | °C
As of 5:25 AM on Sunday 23 Nov 2014 (Local Time) from EHGG Reporting Station
Few Clouds Few Clouds  
Wind Chill: 44°   Ceiling: Unl
Heat Index: 46°   Visibility: 4mi
Dew Point: 45°   Wind: 5mph
Humidity: 93%   Direction: 180°S
Pressure: 30.03"   Gusts: NA
Location:  53.23°N, 6.57°E
Report Text: EHGG 230425Z AUTO 18004KT 150V210 7000 FEW015CB 08/07 Q1017
Loading
Personal Weather Stations






























Interactive Weather Map New forecast layout! Learn more

10-Day Weather Forecast

Advertisements
Track Severe Weather on mobile